Aviation Digital Data Service (ADDS)

Output produced by TAFs form (1359 UTC 20 September 2014)
found at http://aviationweather.gov/adds/tafs/
 
KRIL 201120Z 2012/2112 VRB03KT P6SM SKC 
     FM201900 31007KT P6SM FEW110 
     FM210200 12004KT P6SM FEW110 SCT250 
     FM210600 27007KT P6SM SCT110 BKN200